sensor_id;sensor_type;location;lat;lon;timestamp;P1;durP1;ratioP1;P2;durP2;ratioP2
58152;SDS011;43967;51.634;5.566;2023-02-01T00:01:32;9.53;;;3.30;;
58152;SDS011;43967;51.634;5.566;2023-02-01T00:06:33;12.18;;;3.10;;
58152;SDS011;43967;51.634;5.566;2023-02-01T00:11:34;10.32;;;2.63;;
58152;SDS011;43967;51.634;5.566;2023-02-01T00:16:35;11.23;;;2.63;;
58152;SDS011;43967;51.634;5.566;2023-02-01T00:21:36;9.15;;;2.97;;
58152;SDS011;43967;51.634;5.566;2023-02-01T00:26:41;9.15;;;2.40;;
58152;SDS011;43967;51.634;5.566;2023-02-01T00:31:44;9.50;;;2.63;;
58152;SDS011;43967;51.634;5.566;2023-02-01T00:36:46;10.40;;;2.55;;
58152;SDS011;43967;51.634;5.566;2023-02-01T00:41:47;9.50;;;2.67;;
58152;SDS011;43967;51.634;5.566;2023-02-01T00:46:48;10.33;;;2.80;;
58152;SDS011;43967;51.634;5.566;2023-02-01T00:51:49;7.57;;;2.33;;
58152;SDS011;43967;51.634;5.566;2023-02-01T00:56:50;8.80;;;2.22;;
58152;SDS011;43967;51.634;5.566;2023-02-01T01:01:51;8.65;;;2.33;;
58152;SDS011;43967;51.634;5.566;2023-02-01T01:06:52;9.57;;;2.47;;
58152;SDS011;43967;51.634;5.566;2023-02-01T01:11:53;7.93;;;2.30;;
58152;SDS011;43967;51.634;5.566;2023-02-01T01:16:54;8.23;;;2.22;;
58152;SDS011;43967;51.634;5.566;2023-02-01T01:21:55;8.60;;;2.20;;
58152;SDS011;43967;51.634;5.566;2023-02-01T01:26:56;7.95;;;2.10;;
58152;SDS011;43967;51.634;5.566;2023-02-01T01:31:57;7.00;;;2.15;;
58152;SDS011;43967;51.634;5.566;2023-02-01T01:36:58;8.70;;;2.03;;
58152;SDS011;43967;51.634;5.566;2023-02-01T01:41:59;7.90;;;2.23;;
58152;SDS011;43967;51.634;5.566;2023-02-01T01:47:00;7.90;;;2.10;;
58152;SDS011;43967;51.634;5.566;2023-02-01T01:52:01;7.10;;;2.03;;
58152;SDS011;43967;51.634;5.566;2023-02-01T01:57:04;7.53;;;2.10;;
58152;SDS011;43967;51.634;5.566;2023-02-01T02:02:09;8.25;;;2.10;;
58152;SDS011;43967;51.634;5.566;2023-02-01T02:07:18;10.07;;;2.25;;
58152;SDS011;43967;51.634;5.566;2023-02-01T02:12:25;8.70;;;2.43;;
58152;SDS011;43967;51.634;5.566;2023-02-01T02:38:36;10.60;;;2.17;;
58152;SDS011;43967;51.634;5.566;2023-02-01T02:43:55;8.52;;;2.20;;
58152;SDS011;43967;51.634;5.566;2023-02-01T02:49:01;7.83;;;1.80;;
58152;SDS011;43967;51.634;5.566;2023-02-01T02:54:16;7.57;;;1.90;;
58152;SDS011;43967;51.634;5.566;2023-02-01T02:59:27;6.97;;;1.88;;
58152;SDS011;43967;51.634;5.566;2023-02-01T03:04:30;9.37;;;2.20;;
58152;SDS011;43967;51.634;5.566;2023-02-01T03:09:31;10.07;;;1.90;;
58152;SDS011;43967;51.634;5.566;2023-02-01T03:14:37;8.93;;;2.10;;
58152;SDS011;43967;51.634;5.566;2023-02-01T03:19:44;7.90;;;2.00;;
58152;SDS011;43967;51.634;5.566;2023-02-01T03:24:52;7.13;;;1.87;;
58152;SDS011;43967;51.634;5.566;2023-02-01T03:35:00;10.38;;;2.17;;
58152;SDS011;43967;51.634;5.566;2023-02-01T03:40:03;7.77;;;1.83;;
58152;SDS011;43967;51.634;5.566;2023-02-01T03:45:13;6.53;;;1.83;;
58152;SDS011;43967;51.634;5.566;2023-02-01T03:50:24;7.13;;;1.90;;
58152;SDS011;43967;51.634;5.566;2023-02-01T03:55:28;7.43;;;1.90;;
58152;SDS011;43967;51.634;5.566;2023-02-01T04:00:30;8.00;;;2.13;;
58152;SDS011;43967;51.634;5.566;2023-02-01T04:05:32;7.68;;;1.92;;
58152;SDS011;43967;51.634;5.566;2023-02-01T04:10:33;7.23;;;2.13;;
58152;SDS011;43967;51.634;5.566;2023-02-01T04:15:34;8.37;;;2.47;;
58152;SDS011;43967;51.634;5.566;2023-02-01T04:20:35;7.68;;;1.90;;
58152;SDS011;43967;51.634;5.566;2023-02-01T04:25:36;8.45;;;1.90;;
58152;SDS011;43967;51.634;5.566;2023-02-01T04:30:37;9.80;;;2.03;;
58152;SDS011;43967;51.634;5.566;2023-02-01T04:35:39;7.47;;;2.00;;
58152;SDS011;43967;51.634;5.566;2023-02-01T04:40:40;6.80;;;1.73;;
58152;SDS011;43967;51.634;5.566;2023-02-01T04:45:41;6.90;;;1.97;;
58152;SDS011;43967;51.634;5.566;2023-02-01T04:50:46;7.43;;;1.90;;
58152;SDS011;43967;51.634;5.566;2023-02-01T04:55:49;7.32;;;1.83;;
58152;SDS011;43967;51.634;5.566;2023-02-01T05:00:50;7.43;;;1.80;;
58152;SDS011;43967;51.634;5.566;2023-02-01T05:05:51;6.37;;;1.67;;
58152;SDS011;43967;51.634;5.566;2023-02-01T05:10:52;7.28;;;2.00;;
58152;SDS011;43967;51.634;5.566;2023-02-01T05:15:53;7.88;;;1.73;;
58152;SDS011;43967;51.634;5.566;2023-02-01T05:20:54;8.10;;;1.63;;
58152;SDS011;43967;51.634;5.566;2023-02-01T05:25:59;7.50;;;1.80;;
58152;SDS011;43967;51.634;5.566;2023-02-01T05:31:01;7.95;;;1.90;;
58152;SDS011;43967;51.634;5.566;2023-02-01T05:36:09;7.97;;;2.20;;
58152;SDS011;43967;51.634;5.566;2023-02-01T05:41:10;7.10;;;1.80;;
58152;SDS011;43967;51.634;5.566;2023-02-01T05:46:11;8.40;;;2.20;;
58152;SDS011;43967;51.634;5.566;2023-02-01T05:51:13;7.27;;;1.90;;
58152;SDS011;43967;51.634;5.566;2023-02-01T05:56:14;6.60;;;1.93;;
58152;SDS011;43967;51.634;5.566;2023-02-01T06:01:15;7.72;;;1.77;;
58152;SDS011;43967;51.634;5.566;2023-02-01T06:06:16;9.15;;;1.83;;
58152;SDS011;43967;51.634;5.566;2023-02-01T06:11:17;10.63;;;1.87;;
58152;SDS011;43967;51.634;5.566;2023-02-01T06:16:18;9.75;;;1.80;;
58152;SDS011;43967;51.634;5.566;2023-02-01T06:21:19;9.02;;;1.58;;
58152;SDS011;43967;51.634;5.566;2023-02-01T06:26:20;7.27;;;1.70;;
58152;SDS011;43967;51.634;5.566;2023-02-01T06:31:21;8.85;;;1.67;;
58152;SDS011;43967;51.634;5.566;2023-02-01T06:36:23;9.13;;;1.70;;
58152;SDS011;43967;51.634;5.566;2023-02-01T06:41:24;13.07;;;2.40;;
58152;SDS011;43967;51.634;5.566;2023-02-01T06:46:25;9.87;;;2.00;;
58152;SDS011;43967;51.634;5.566;2023-02-01T06:51:26;8.10;;;2.22;;
58152;SDS011;43967;51.634;5.566;2023-02-01T06:56:28;12.57;;;1.98;;
58152;SDS011;43967;51.634;5.566;2023-02-01T07:01:29;8.37;;;1.70;;
58152;SDS011;43967;51.634;5.566;2023-02-01T07:06:30;10.60;;;1.95;;
58152;SDS011;43967;51.634;5.566;2023-02-01T07:11:31;11.05;;;2.25;;
58152;SDS011;43967;51.634;5.566;2023-02-01T07:16:32;12.43;;;2.10;;
58152;SDS011;43967;51.634;5.566;2023-02-01T07:21:33;11.52;;;2.13;;
58152;SDS011;43967;51.634;5.566;2023-02-01T07:26:34;10.85;;;2.20;;
58152;SDS011;43967;51.634;5.566;2023-02-01T07:31:35;11.47;;;2.47;;
58152;SDS011;43967;51.634;5.566;2023-02-01T07:36:36;13.47;;;2.50;;
58152;SDS011;43967;51.634;5.566;2023-02-01T07:41:37;9.52;;;2.03;;
58152;SDS011;43967;51.634;5.566;2023-02-01T07:46:38;9.23;;;2.22;;
58152;SDS011;43967;51.634;5.566;2023-02-01T07:51:39;10.73;;;1.87;;
58152;SDS011;43967;51.634;5.566;2023-02-01T07:56:40;13.13;;;2.20;;
58152;SDS011;43967;51.634;5.566;2023-02-01T08:01:41;11.10;;;2.63;;
58152;SDS011;43967;51.634;5.566;2023-02-01T08:06:43;12.17;;;2.70;;
58152;SDS011;43967;51.634;5.566;2023-02-01T08:11:44;9.95;;;2.15;;
58152;SDS011;43967;51.634;5.566;2023-02-01T08:16:45;12.20;;;2.50;;
58152;SDS011;43967;51.634;5.566;2023-02-01T08:21:46;15.57;;;3.20;;
58152;SDS011;43967;51.634;5.566;2023-02-01T08:26:48;12.40;;;2.43;;
58152;SDS011;43967;51.634;5.566;2023-02-01T08:31:49;10.82;;;2.55;;
58152;SDS011;43967;51.634;5.566;2023-02-01T08:36:50;12.10;;;2.38;;
58152;SDS011;43967;51.634;5.566;2023-02-01T08:41:52;12.70;;;2.03;;
58152;SDS011;43967;51.634;5.566;2023-02-01T08:46:53;10.45;;;2.67;;
58152;SDS011;43967;51.634;5.566;2023-02-01T08:51:54;11.20;;;2.53;;
58152;SDS011;43967;51.634;5.566;2023-02-01T08:56:55;11.03;;;2.33;;
58152;SDS011;43967;51.634;5.566;2023-02-01T09:01:56;12.73;;;2.55;;
58152;SDS011;43967;51.634;5.566;2023-02-01T09:06:57;12.32;;;2.53;;
58152;SDS011;43967;51.634;5.566;2023-02-01T09:11:58;10.83;;;2.50;;
58152;SDS011;43967;51.634;5.566;2023-02-01T09:16:59;9.93;;;2.20;;
58152;SDS011;43967;51.634;5.566;2023-02-01T09:22:00;12.30;;;2.40;;
58152;SDS011;43967;51.634;5.566;2023-02-01T09:27:01;17.33;;;3.10;;
58152;SDS011;43967;51.634;5.566;2023-02-01T09:32:03;15.33;;;2.73;;
58152;SDS011;43967;51.634;5.566;2023-02-01T09:37:04;18.20;;;2.88;;
58152;SDS011;43967;51.634;5.566;2023-02-01T09:47:24;17.37;;;3.03;;
58152;SDS011;43967;51.634;5.566;2023-02-01T09:52:31;13.20;;;2.60;;
58152;SDS011;43967;51.634;5.566;2023-02-01T09:57:40;15.70;;;2.72;;
58152;SDS011;43967;51.634;5.566;2023-02-01T10:03:11;14.03;;;2.80;;
58152;SDS011;43967;51.634;5.566;2023-02-01T10:08:25;17.10;;;3.50;;
58152;SDS011;43967;51.634;5.566;2023-02-01T10:13:50;15.25;;;2.90;;
58152;SDS011;43967;51.634;5.566;2023-02-01T10:29:42;12.80;;;2.92;;
58152;SDS011;43967;51.634;5.566;2023-02-01T10:34:46;16.75;;;2.78;;
58152;SDS011;43967;51.634;5.566;2023-02-01T10:39:53;26.30;;;3.43;;
58152;SDS011;43967;51.634;5.566;2023-02-01T10:44:56;42.08;;;3.83;;
58152;SDS011;43967;51.634;5.566;2023-02-01T11:05:48;19.58;;;3.13;;
58152;SDS011;43967;51.634;5.566;2023-02-01T11:10:57;23.13;;;2.92;;
58152;SDS011;43967;51.634;5.566;2023-02-01T11:16:00;20.60;;;3.23;;
58152;SDS011;43967;51.634;5.566;2023-02-01T11:21:03;28.70;;;3.92;;
58152;SDS011;43967;51.634;5.566;2023-02-01T11:26:19;29.13;;;5.25;;
58152;SDS011;43967;51.634;5.566;2023-02-01T11:31:26;23.20;;;4.70;;
58152;SDS011;43967;51.634;5.566;2023-02-01T11:36:30;22.95;;;3.83;;
58152;SDS011;43967;51.634;5.566;2023-02-01T11:41:32;19.83;;;3.50;;
58152;SDS011;43967;51.634;5.566;2023-02-01T11:46:34;18.17;;;3.90;;
58152;SDS011;43967;51.634;5.566;2023-02-01T11:51:42;17.33;;;3.93;;
58152;SDS011;43967;51.634;5.566;2023-02-01T12:02:33;15.25;;;3.28;;
58152;SDS011;43967;51.634;5.566;2023-02-01T12:08:00;14.97;;;3.10;;
58152;SDS011;43967;51.634;5.566;2023-02-01T12:13:15;12.30;;;2.88;;
58152;SDS011;43967;51.634;5.566;2023-02-01T12:39:49;14.80;;;3.10;;
58152;SDS011;43967;51.634;5.566;2023-02-01T12:45:04;13.47;;;2.97;;
58152;SDS011;43967;51.634;5.566;2023-02-01T12:50:33;11.85;;;2.72;;
58152;SDS011;43967;51.634;5.566;2023-02-01T12:55:42;12.65;;;2.78;;
58152;SDS011;43967;51.634;5.566;2023-02-01T13:00:50;12.87;;;2.60;;
58152;SDS011;43967;51.634;5.566;2023-02-01T13:06:13;15.30;;;3.22;;
58152;SDS011;43967;51.634;5.566;2023-02-01T13:11:20;14.40;;;4.15;;
58152;SDS011;43967;51.634;5.566;2023-02-01T13:16:48;15.70;;;4.20;;
58152;SDS011;43967;51.634;5.566;2023-02-01T13:21:53;15.50;;;3.60;;
58152;SDS011;43967;51.634;5.566;2023-02-01T13:26:57;13.88;;;3.85;;
58152;SDS011;43967;51.634;5.566;2023-02-01T13:32:42;14.73;;;3.37;;
58152;SDS011;43967;51.634;5.566;2023-02-01T13:37:48;11.63;;;3.07;;
58152;SDS011;43967;51.634;5.566;2023-02-01T13:43:13;13.60;;;3.97;;
58152;SDS011;43967;51.634;5.566;2023-02-01T13:48:21;16.98;;;3.72;;
58152;SDS011;43967;51.634;5.566;2023-02-01T13:53:29;15.73;;;3.03;;
58152;SDS011;43967;51.634;5.566;2023-02-01T13:58:36;10.48;;;2.70;;
58152;SDS011;43967;51.634;5.566;2023-02-01T14:03:46;12.30;;;3.15;;
58152;SDS011;43967;51.634;5.566;2023-02-01T14:19:22;18.08;;;4.32;;
58152;SDS011;43967;51.634;5.566;2023-02-01T14:24:26;22.23;;;5.20;;
58152;SDS011;43967;51.634;5.566;2023-02-01T14:29:39;24.27;;;4.80;;
58152;SDS011;43967;51.634;5.566;2023-02-01T14:44:55;19.70;;;3.73;;
58152;SDS011;43967;51.634;5.566;2023-02-01T14:55:27;23.35;;;4.15;;
58152;SDS011;43967;51.634;5.566;2023-02-01T15:00:56;21.23;;;4.50;;
58152;SDS011;43967;51.634;5.566;2023-02-01T15:05:59;18.88;;;3.70;;
58152;SDS011;43967;51.634;5.566;2023-02-01T15:11:01;23.05;;;3.75;;
58152;SDS011;43967;51.634;5.566;2023-02-01T15:16:15;13.03;;;3.67;;
58152;SDS011;43967;51.634;5.566;2023-02-01T15:21:21;15.07;;;3.83;;
58152;SDS011;43967;51.634;5.566;2023-02-01T15:26:27;14.40;;;3.22;;
58152;SDS011;43967;51.634;5.566;2023-02-01T15:37:04;13.93;;;3.30;;
58152;SDS011;43967;51.634;5.566;2023-02-01T15:42:12;16.77;;;3.75;;
58152;SDS011;43967;51.634;5.566;2023-02-01T15:47:22;17.42;;;3.22;;
58152;SDS011;43967;51.634;5.566;2023-02-01T15:52:35;12.20;;;2.83;;
58152;SDS011;43967;51.634;5.566;2023-02-01T15:57:38;12.55;;;3.22;;
58152;SDS011;43967;51.634;5.566;2023-02-01T16:02:42;16.55;;;3.67;;
58152;SDS011;43967;51.634;5.566;2023-02-01T16:07:56;29.87;;;7.37;;
58152;SDS011;43967;51.634;5.566;2023-02-01T16:13:00;42.67;;;5.10;;
58152;SDS011;43967;51.634;5.566;2023-02-01T16:18:01;20.02;;;4.55;;
58152;SDS011;43967;51.634;5.566;2023-02-01T16:23:03;21.58;;;4.32;;
58152;SDS011;43967;51.634;5.566;2023-02-01T16:28:05;15.60;;;3.10;;
58152;SDS011;43967;51.634;5.566;2023-02-01T16:33:09;17.77;;;3.30;;
58152;SDS011;43967;51.634;5.566;2023-02-01T16:38:15;15.57;;;3.38;;
58152;SDS011;43967;51.634;5.566;2023-02-01T16:43:18;16.20;;;3.60;;
58152;SDS011;43967;51.634;5.566;2023-02-01T16:48:27;13.93;;;2.80;;
58152;SDS011;43967;51.634;5.566;2023-02-01T16:53:33;18.02;;;3.70;;
58152;SDS011;43967;51.634;5.566;2023-02-01T16:58:35;14.93;;;3.30;;
58152;SDS011;43967;51.634;5.566;2023-02-01T17:03:36;11.07;;;2.50;;
58152;SDS011;43967;51.634;5.566;2023-02-01T17:08:44;12.50;;;3.00;;
58152;SDS011;43967;51.634;5.566;2023-02-01T17:13:48;10.90;;;3.05;;
58152;SDS011;43967;51.634;5.566;2023-02-01T17:18:56;13.20;;;2.47;;
58152;SDS011;43967;51.634;5.566;2023-02-01T17:23:59;10.75;;;2.47;;
58152;SDS011;43967;51.634;5.566;2023-02-01T17:29:08;19.42;;;2.75;;
58152;SDS011;43967;51.634;5.566;2023-02-01T17:34:11;13.40;;;3.30;;
58152;SDS011;43967;51.634;5.566;2023-02-01T17:39:17;10.93;;;2.63;;
58152;SDS011;43967;51.634;5.566;2023-02-01T17:44:19;15.20;;;3.47;;
58152;SDS011;43967;51.634;5.566;2023-02-01T17:49:20;13.40;;;2.67;;
58152;SDS011;43967;51.634;5.566;2023-02-01T17:54:21;16.40;;;2.80;;
58152;SDS011;43967;51.634;5.566;2023-02-01T17:59:22;13.30;;;2.60;;
58152;SDS011;43967;51.634;5.566;2023-02-01T18:04:23;13.50;;;2.33;;
58152;SDS011;43967;51.634;5.566;2023-02-01T18:09:24;12.80;;;2.50;;
58152;SDS011;43967;51.634;5.566;2023-02-01T18:14:25;15.95;;;2.88;;
58152;SDS011;43967;51.634;5.566;2023-02-01T18:19:26;14.70;;;2.75;;
58152;SDS011;43967;51.634;5.566;2023-02-01T18:24:27;14.47;;;3.27;;
58152;SDS011;43967;51.634;5.566;2023-02-01T18:38:16;9.80;;;2.80;;
58152;SDS011;43967;51.634;5.566;2023-02-01T18:38:27;12.40;;;2.90;;
58152;SDS011;43967;51.634;5.566;2023-02-01T18:38:38;12.52;;;2.78;;
58152;SDS011;43967;51.634;5.566;2023-02-01T18:38:49;12.73;;;2.80;;
58152;SDS011;43967;51.634;5.566;2023-02-01T18:39:00;12.30;;;2.90;;
58152;SDS011;43967;51.634;5.566;2023-02-01T18:39:12;11.85;;;3.10;;
58152;SDS011;43967;51.634;5.566;2023-02-01T18:39:23;12.13;;;2.85;;
58152;SDS011;43967;51.634;5.566;2023-02-01T18:39:34;13.82;;;3.08;;
58152;SDS011;43967;51.634;5.566;2023-02-01T18:39:45;15.05;;;3.00;;
58152;SDS011;43967;51.634;5.566;2023-02-01T18:39:56;15.33;;;3.00;;
58152;SDS011;43967;51.634;5.566;2023-02-01T18:40:11;15.02;;;3.00;;
58152;SDS011;43967;51.634;5.566;2023-02-01T18:40:40;16.58;;;3.25;;
58152;SDS011;43967;51.634;5.566;2023-02-01T18:40:57;13.68;;;3.40;;
58152;SDS011;43967;51.634;5.566;2023-02-01T18:41:20;11.70;;;2.75;;
58152;SDS011;43967;51.634;5.566;2023-02-01T18:41:31;12.45;;;2.78;;
58152;SDS011;43967;51.634;5.566;2023-02-01T18:41:43;12.85;;;2.75;;
58152;SDS011;43967;51.634;5.566;2023-02-01T18:41:56;14.10;;;2.97;;
58152;SDS011;43967;51.634;5.566;2023-02-01T18:42:08;12.52;;;2.92;;
58152;SDS011;43967;51.634;5.566;2023-02-01T19:46:36;13.87;;;2.97;;
58152;SDS011;43967;51.634;5.566;2023-02-01T19:51:38;15.13;;;3.30;;
58152;SDS011;43967;51.634;5.566;2023-02-01T19:56:39;11.65;;;2.50;;
58152;SDS011;43967;51.634;5.566;2023-02-01T20:01:41;10.65;;;2.60;;
58152;SDS011;43967;51.634;5.566;2023-02-01T20:06:43;8.53;;;2.20;;
58152;SDS011;43967;51.634;5.566;2023-02-01T20:11:45;10.65;;;2.45;;
58152;SDS011;43967;51.634;5.566;2023-02-01T20:16:47;8.57;;;2.45;;
58152;SDS011;43967;51.634;5.566;2023-02-01T20:21:48;9.10;;;3.07;;
58152;SDS011;43967;51.634;5.566;2023-02-01T20:26:49;9.30;;;2.03;;
58152;SDS011;43967;51.634;5.566;2023-02-01T20:31:50;7.88;;;2.25;;
58152;SDS011;43967;51.634;5.566;2023-02-01T20:36:51;8.40;;;2.40;;
58152;SDS011;43967;51.634;5.566;2023-02-01T20:41:52;9.70;;;2.37;;
58152;SDS011;43967;51.634;5.566;2023-02-01T20:46:53;9.57;;;2.30;;
58152;SDS011;43967;51.634;5.566;2023-02-01T20:51:54;8.88;;;2.38;;
58152;SDS011;43967;51.634;5.566;2023-02-01T20:56:55;8.70;;;2.17;;
58152;SDS011;43967;51.634;5.566;2023-02-01T21:01:56;8.05;;;1.80;;
58152;SDS011;43967;51.634;5.566;2023-02-01T21:06:58;8.25;;;2.97;;
58152;SDS011;43967;51.634;5.566;2023-02-01T21:11:59;11.13;;;2.67;;
58152;SDS011;43967;51.634;5.566;2023-02-01T21:17:00;8.52;;;2.10;;
58152;SDS011;43967;51.634;5.566;2023-02-01T21:22:01;9.30;;;2.38;;
58152;SDS011;43967;51.634;5.566;2023-02-01T21:27:02;7.97;;;2.03;;
58152;SDS011;43967;51.634;5.566;2023-02-01T21:32:03;7.67;;;2.00;;
58152;SDS011;43967;51.634;5.566;2023-02-01T21:37:05;7.47;;;2.22;;
58152;SDS011;43967;51.634;5.566;2023-02-01T21:42:07;8.35;;;2.85;;
58152;SDS011;43967;51.634;5.566;2023-02-01T21:47:09;8.90;;;2.20;;
58152;SDS011;43967;51.634;5.566;2023-02-01T21:52:10;7.45;;;2.53;;
58152;SDS011;43967;51.634;5.566;2023-02-01T21:57:12;7.78;;;2.17;;
58152;SDS011;43967;51.634;5.566;2023-02-01T22:02:13;8.67;;;2.30;;
58152;SDS011;43967;51.634;5.566;2023-02-01T22:07:16;8.15;;;2.30;;
58152;SDS011;43967;51.634;5.566;2023-02-01T22:12:17;9.20;;;2.50;;
58152;SDS011;43967;51.634;5.566;2023-02-01T22:17:18;7.77;;;2.50;;
58152;SDS011;43967;51.634;5.566;2023-02-01T22:22:19;8.48;;;2.17;;
58152;SDS011;43967;51.634;5.566;2023-02-01T22:27:20;8.35;;;2.03;;
58152;SDS011;43967;51.634;5.566;2023-02-01T22:32:21;8.37;;;2.30;;
58152;SDS011;43967;51.634;5.566;2023-02-01T22:37:22;9.63;;;2.10;;
58152;SDS011;43967;51.634;5.566;2023-02-01T22:42:23;8.90;;;2.20;;
58152;SDS011;43967;51.634;5.566;2023-02-01T22:47:24;8.93;;;2.20;;
58152;SDS011;43967;51.634;5.566;2023-02-01T22:52:26;7.90;;;1.97;;
58152;SDS011;43967;51.634;5.566;2023-02-01T22:57:27;8.02;;;1.98;;
58152;SDS011;43967;51.634;5.566;2023-02-01T23:02:28;8.25;;;1.75;;
58152;SDS011;43967;51.634;5.566;2023-02-01T23:07:29;7.97;;;1.90;;
58152;SDS011;43967;51.634;5.566;2023-02-01T23:12:30;6.30;;;1.63;;
58152;SDS011;43967;51.634;5.566;2023-02-01T23:17:31;7.60;;;2.22;;
58152;SDS011;43967;51.634;5.566;2023-02-01T23:22:32;7.77;;;1.83;;
58152;SDS011;43967;51.634;5.566;2023-02-01T23:27:33;8.90;;;1.98;;
58152;SDS011;43967;51.634;5.566;2023-02-01T23:32:34;6.07;;;1.40;;
58152;SDS011;43967;51.634;5.566;2023-02-01T23:37:36;7.37;;;1.93;;
58152;SDS011;43967;51.634;5.566;2023-02-01T23:42:37;8.50;;;2.20;;
58152;SDS011;43967;51.634;5.566;2023-02-01T23:47:38;8.73;;;2.10;;
58152;SDS011;43967;51.634;5.566;2023-02-01T23:52:39;7.90;;;2.00;;
58152;SDS011;43967;51.634;5.566;2023-02-01T23:57:40;7.13;;;1.60;;
